Résultats

Cross de la Nativititée : C02 : 1re & Terminale & Prepas Garçons. Édition 2017.

1.2 Km
28/04/2017 à 08:00:00 - ()
174 arrivant(e)s.


 
Les autres classements de cet évènement




Place▲ Temps Dossard Nom Prenom Categ #Categ Sexe #Sexe Club Vit Moy Diplôme Partager
1 00:03:52 1604 LEMAITRE ANTOINE JUM 1 M 1 T SC2 0,00
2 00:03:55 1577 MICHEL PAUL CAM 1 M 2 T SC1 0,00
3 00:04:11 1526 PHILIZOR BAPTISTE JUM 2 M 3 T ES2 0,00
4 00:04:12 1657 DUGAS GUILLAUME CAM 2 M 4 T SC4 0,00
5 00:04:14 217 LEONI AURELIEN CAM 3 M 5 1 SC4 0,00
6 00:04:15 1478 DE-VITIS GUILLAUME JUM 3 M 6 T ES1 0,00
7 00:04:16 1485 LE-PHILIPPE--RATTIER TITOUAN JUM 4 M 7 T ES1 0,00
8 00:04:19 1597 DUVAL DENIS CAM 4 M 8 T SC2 0,00
9 00:04:22 1609 MARTIN HUGO JUM 5 M 9 T SC2 0,00
10 00:04:23 183 PAYA ROBIN CAM 5 M 10 1 SC3 0,00
11 00:04:25 1500 VILLETARD PAUL JUM 6 M 11 T ES1 0,00
12 00:04:26 1473 CARANTA THIBAUT JUM 7 M 12 T ES1 0,00
13 00:04:26 1635 LACROIX ANTOINE JUM 8 M 13 T SC3 0,00
14 00:04:29 1671 POUSSARDIN MATIS JUM 9 M 14 T SC4 0,00
15 00:04:29 121 THIERS ALEXANDRE CAM 6 M 15 1 SC1 0,00
16 00:04:31 1648 SERPE ANTOINE JUM 10 M 16 T SC3 0,00
17 00:04:32 173 GALINIER NATHAN CAM 7 M 17 1 SC3 0,00
18 00:04:33 1468 BASILLAIS THOMAS JUM 11 M 18 T ES1 0,00
19 00:04:34 27 MEYSENQ MASAYA CAM 8 M 19 1 ES1 0,00
20 00:04:35 127 BERNAND GAUTIER CAM 9 M 20 1 SC2 0,00
21 00:04:36 1574 LE-PEUCH MAE JUM 12 M 21 T SC1 0,00
22 00:04:37 1529 STEINLIN HADRIEN JUM 13 M 22 T ES2 0,00
23 00:04:37 1627 CONSTANT ROMAIN JUM 14 M 23 T SC3 0,00
24 00:04:37 141 LAFON VICTOR CAM 10 M 24 1 SC2 0,00
25 00:04:37 1666 MURADIAN NOE JUM 15 M 25 T SC4 0,00
26 00:04:37 158 TIRONE MARCO CAM 11 M 26 1 SC2 0,00
27 00:04:38 156 RIVOIRE BENJAMIN MIM 1 M 27 1 SC2 0,00
28 00:04:40 83 PEREZ-TAYLOR EMILIANO JUM 16 M 28 1 L 0,00
29 00:04:41 168 DEVENNE VICTOR CAM 12 M 29 1 SC3 0,00
30 00:04:41 1624 N:Anonyme 1624 P:Anonyme 1624 JUM 17 M 30 T SC3 0,00
31 00:04:42 115 MINGUELLA MAXIME CAM 13 M 31 1 SC1 0,00
32 00:04:42 171 FAURE FLORIAN CAM 14 M 32 1 SC3 0,00
33 00:04:45 89 BAUTRANT MATTHIEU CAM 15 M 33 1 SC1 0,00
34 00:04:46 1483 JASPARD ARTHUR JUM 18 M 34 T ES1 0,00
35 00:04:46 1620 ANSART SACHA JUM 19 M 35 T SC3 0,00
36 00:04:46 161 BUTTARELLI FLORENT CAM 16 M 36 1 SC3 0,00
37 00:04:47 107 GROUALLE AXEL CAM 17 M 37 1 SC1 0,00
38 00:04:47 1584 THIERCELIN OSCAR JUM 20 M 38 T SC1 0,00
39 00:04:49 1603 LASSERRE MAXIME CAM 18 M 39 T SC2 0,00
40 00:04:49 1667 NICOLLE THOMAS-ALEXANDRE CAM 19 M 40 T SC4 0,00
41 00:04:51 1541 FANTESINI BASTIEN JUM 21 M 41 T L 0,00
42 00:04:52 34 YEFESS FLORIAN CAM 20 M 42 1 ES1 0,00
43 00:04:53 1644 ROBY MAXIME CAM 21 M 43 T SC3 0,00
44 00:04:54 1614 ROUX FELIX CAM 22 M 44 T SC2 0,00
45 00:04:55 1570 HAINSSELIN PAUL CAM 23 M 45 T SC1 0,00
46 00:04:55 1474 CAUWELIER LOUIS JUM 22 M 46 T ES1 0,00
47 00:04:55 1588 BARILLER ENGUERRAND JUM 23 M 47 T SC2 0,00
48 00:04:55 155 PATIGNY LOIC JUM 24 M 48 1 SC2 0,00
49 00:04:56 1593 CHARDON ANTOINE CAM 24 M 49 T SC2 0,00
50 00:04:58 1598 GEETS PIERRE-LOUIS JUM 25 M 50 T SC2 0,00
51 00:04:59 1680 YEFESS JONATHAN JUM 26 M 51 T SC4 0,00
52 00:05:00 223 NICOLAS YOAN JUM 27 M 52 1 SC4 0,00
53 00:05:00 59 STARSBERG TJARDO JUM 28 M 53 1 ES2 0,00
54 00:05:01 54 MONDIN GUILLAUME CAM 25 M 54 1 ES2 0,00
55 00:05:01 187 PORTALIER THEOTIME CAM 26 M 55 1 SC3 0,00
56 00:05:02 1677 VILLEMIN ROBIN JUM 29 M 56 T SC4 0,00
57 00:05:03 1605 LONGUEVILLE FLORIAN JUM 30 M 57 T SC2 0,00
58 00:05:03 213 GUILLEN NICOLAS CAM 27 M 58 1 SC4 0,00
59 00:05:06 1562 CIVIDIN LUCAS CAM 28 M 59 T SC1 0,00
60 00:05:06 1673 SCHILLACI COSTIA JUM 31 M 60 T SC4 0,00
61 00:05:07 1619 ALLA JEAN-BAPTISTE JUM 32 M 61 T SC3 0,00
62 00:05:08 169 D'HAUTHUILLE ALBAN CAM 29 M 62 1 SC3 0,00
63 00:05:11 103 FARESSE ADAM CAM 30 M 63 1 SC1 0,00
64 00:05:11 1623 BOUCHERIE MATTEO CAM 31 M 64 T SC3 0,00
65 00:05:13 99 DE-MALEFETTE CHARLES CAM 32 M 65 1 SC1 0,00
66 00:05:13 92 BROSSEAU ADRIEN CAM 33 M 66 1 SC1 0,00
67 00:05:13 1548 LEVEQUE VALENTIN JUM 33 M 67 T L 0,00
68 00:05:15 1615 SALINGUE GUILLAUME CAM 34 M 68 T SC2 0,00
69 00:05:15 1586 AILLAUD MATHIEU JUM 34 M 69 T SC2 0,00
70 00:05:15 1606 MALINVAUD ELOI JUM 35 M 70 T SC2 0,00
71 00:05:16 29 PITTION PAUL CAM 35 M 71 1 ES1 0,00
72 00:05:17 1590 BLOCAILLE THOMAS JUM 36 M 72 T SC2 0,00
73 00:05:17 1508 DE-KOK SIMON JUM 37 M 73 T ES2 0,00
74 00:05:18 25 MARGAILLAN MEHDI CAM 36 M 74 1 ES1 0,00
75 00:05:18 175 GUIMBAL ROMAIN CAM 37 M 75 1 SC3 0,00
76 00:05:18 182 NOEL LOUIS CAM 38 M 76 1 SC3 0,00
77 00:05:18 1607 MARCHAND LUCAS JUM 38 M 77 T SC2 0,00
78 00:05:19 1495 ROUSSEAU GABRIEL JUM 39 M 78 T ES1 0,00
79 00:05:19 79 HEBRARD MATHIEU CAM 39 M 79 1 L 0,00
80 00:05:19 139 GOY JULES CAM 40 M 80 1 SC2 0,00
81 00:05:19 1484 LAFONTAN THIBAULT JUM 40 M 81 T ES1 0,00
82 00:05:20 1633 HAGEN THEO JUM 41 M 82 T SC3 0,00
83 00:05:21 58 POUPLIER BENJAMIN CAM 41 M 83 1 ES2 0,00
84 00:05:23 1566 GAUFRES THIBAUT JUM 42 M 84 T SC1 0,00
85 00:05:23 1578 MILAZZO JULIEN JUM 43 M 85 T SC1 0,00
86 00:05:25 63 YAHIAOUI ABDELLATIF CAM 42 M 86 1 ES2 0,00
87 00:05:25 47 GRANIER MATTHIEUX JUM 44 M 87 1 ES2 0,00
88 00:05:26 204 DAUDONNET ARTHUR CAM 43 M 88 1 SC4 0,00
89 00:05:27 227 SERT JEREMY CAM 44 M 89 1 SC4 0,00
90 00:05:27 55 MONDONNET BAPTISTE JUM 45 M 90 1 ES2 0,00
91 00:05:28 225 RIDARD HUGO CAM 45 M 91 1 SC4 0,00
92 00:05:28 1564 DJEBLI ADAM JUM 46 M 92 T SC1 0,00
93 00:05:28 181 MOULINS PIERRE CAM 46 M 93 1 SC3 0,00
94 00:05:29 170 DJERBI ANTON CAM 47 M 94 1 SC3 0,00
95 00:05:31 1669 PAILLET VIRGILE CAM 48 M 95 T SC4 0,00
96 00:05:31 135 DUQUENNOY THIBAULT MIM 2 M 96 1 SC2 0,00
97 00:05:31 60 TIRAND GUILLAUME CAM 49 M 97 1 ES2 0,00
98 00:05:32 101 DRUBAY CLERY-GABRIEL CAM 50 M 98 1 SC1 0,00
99 00:05:33 1612 PIERRON QUENTIN JUM 47 M 99 T SC2 0,00
100 00:05:34 197 BARADUC CLEMENT CAM 51 M 100 1 SC4 0,00